createdAt,value
2019-05-06T00:00:26.753Z,5.00
2019-05-06T00:02:55.492Z,5.00
2019-05-06T00:05:25.559Z,5.00
2019-05-06T00:07:55.132Z,4.90
2019-05-06T00:10:27.270Z,4.90
2019-05-06T00:12:57.238Z,4.80
2019-05-06T00:15:28.037Z,4.80
2019-05-06T00:17:57.535Z,4.80
2019-05-06T00:20:27.038Z,4.80
2019-05-06T00:22:58.099Z,4.70
2019-05-06T00:25:31.536Z,4.70
2019-05-06T00:28:19.117Z,4.70
2019-05-06T00:30:50.125Z,4.70
2019-05-06T00:33:19.474Z,4.60
2019-05-06T00:35:48.817Z,4.50
2019-05-06T00:38:18.164Z,4.40
2019-05-06T00:40:57.917Z,4.40
2019-05-06T00:43:27.280Z,4.50
2019-05-06T00:45:56.628Z,4.50
2019-05-06T00:48:26.046Z,4.50
2019-05-06T00:50:55.459Z,4.50
2019-05-06T00:53:29.379Z,4.60
2019-05-06T00:55:58.798Z,4.40
2019-05-06T00:58:28.167Z,4.40
2019-05-06T01:00:57.585Z,4.40
2019-05-06T01:03:26.942Z,4.40
2019-05-06T01:05:56.376Z,4.30
2019-05-06T01:08:27.645Z,4.30
2019-05-06T01:10:57.099Z,4.30
2019-05-06T01:13:28.095Z,4.30
2019-05-06T01:15:57.465Z,4.20
2019-05-06T01:18:26.821Z,4.20
2019-05-06T01:21:11.102Z,4.20
2019-05-06T01:23:43.944Z,4.20
2019-05-06T01:26:15.317Z,4.20
2019-05-06T01:28:45.615Z,4.30
2019-05-06T01:31:15.300Z,4.20
2019-05-06T01:33:45.729Z,4.10
2019-05-06T01:36:15.103Z,4.20
2019-05-06T01:38:46.307Z,4.30
2019-05-06T01:41:33.826Z,4.30
2019-05-06T01:44:04.225Z,4.20
2019-05-06T01:46:34.075Z,4.10
2019-05-06T01:49:04.211Z,4.10
2019-05-06T01:51:34.766Z,4.20
2019-05-06T01:54:04.583Z,4.10
2019-05-06T01:56:33.938Z,4.10
2019-05-06T01:59:04.586Z,4.10
2019-05-06T02:01:34.464Z,4.10
2019-05-06T02:04:05.927Z,4.00
2019-05-06T02:06:35.325Z,4.00
2019-05-06T02:09:09.546Z,4.00
2019-05-06T02:11:38.966Z,3.90
2019-05-06T02:14:08.424Z,3.90
2019-05-06T02:16:37.852Z,3.90
2019-05-06T02:19:07.194Z,3.80
2019-05-06T02:21:38.220Z,3.80
2019-05-06T02:24:24.411Z,3.90
2019-05-06T02:26:54.368Z,4.00
2019-05-06T02:29:29.216Z,4.00
2019-05-06T02:32:19.924Z,4.00
2019-05-06T02:34:36.709Z,4.00
2019-05-06T02:37:25.437Z,4.00
2019-05-06T02:39:55.006Z,4.10
2019-05-06T02:42:24.372Z,4.20
2019-05-06T02:44:54.364Z,4.10
2019-05-06T02:47:37.841Z,4.10
2019-05-06T02:50:09.166Z,4.10
2019-05-06T02:52:38.536Z,4.00
2019-05-06T02:55:08.123Z,4.10
2019-05-06T02:57:37.568Z,4.10
2019-05-06T03:00:13.144Z,4.20
2019-05-06T03:02:47.985Z,4.20
2019-05-06T03:05:14.860Z,4.30
2019-05-06T03:07:44.237Z,4.30
2019-05-06T03:10:15.835Z,4.30
2019-05-06T03:12:45.199Z,4.30
2019-05-06T03:15:16.861Z,4.30
2019-05-06T03:17:46.594Z,4.30
2019-05-06T03:20:37.206Z,4.20
2019-05-06T03:23:13.973Z,4.30
2019-05-06T03:25:44.131Z,4.30
2019-05-06T03:28:13.601Z,4.20
2019-05-06T03:30:45.810Z,4.30
2019-05-06T03:33:38.460Z,4.30
2019-05-06T03:36:00.386Z,4.30
2019-05-06T03:38:16.804Z,4.30
2019-05-06T03:40:46.196Z,4.30
2019-05-06T03:43:16.110Z,4.30
2019-05-06T03:45:53.501Z,4.40
2019-05-06T03:48:33.343Z,4.40
2019-05-06T03:51:04.030Z,4.40
2019-05-06T03:53:35.753Z,4.40
2019-05-06T03:56:06.111Z,4.30
2019-05-06T03:58:37.692Z,4.30
2019-05-06T04:01:07.069Z,4.40
2019-05-06T04:03:47.340Z,4.30
2019-05-06T04:06:09.149Z,4.40
2019-05-06T04:08:38.754Z,4.30
2019-05-06T04:11:09.661Z,4.30
2019-05-06T04:13:39.159Z,4.40
2019-05-06T04:16:22.810Z,4.40
2019-05-06T04:19:08.764Z,4.40
2019-05-06T04:21:58.149Z,4.40
2019-05-06T04:24:45.762Z,4.40
2019-05-06T04:27:29.560Z,4.30
2019-05-06T04:29:59.660Z,4.40
2019-05-06T04:32:29.023Z,4.50
2019-05-06T04:34:58.898Z,4.50
2019-05-06T04:37:28.344Z,4.60
2019-05-06T04:39:57.839Z,4.70
2019-05-06T04:42:27.218Z,4.90
2019-05-06T04:44:57.820Z,4.90
2019-05-06T04:47:27.169Z,5.10
2019-05-06T04:49:56.587Z,5.10
2019-05-06T04:52:26.320Z,5.20
2019-05-06T04:54:55.830Z,5.40
2019-05-06T04:57:25.264Z,5.40
2019-05-06T04:59:55.119Z,5.40
2019-05-06T05:02:24.559Z,5.40
2019-05-06T05:04:53.927Z,5.50
2019-05-06T05:07:23.404Z,5.60
2019-05-06T05:09:54.641Z,5.80
2019-05-06T05:12:25.643Z,5.90
2019-05-06T05:14:56.723Z,6.00
2019-05-06T05:17:39.615Z,6.10
2019-05-06T05:20:09.419Z,6.00
2019-05-06T05:22:39.034Z,6.10
2019-05-06T05:25:08.462Z,6.20
2019-05-06T05:27:37.910Z,6.30
2019-05-06T05:30:07.693Z,6.40
2019-05-06T05:32:37.124Z,6.50
2019-05-06T05:35:06.732Z,6.50
2019-05-06T05:37:37.298Z,6.60
2019-05-06T05:40:06.806Z,6.70
2019-05-06T05:42:42.269Z,6.80
2019-05-06T05:45:13.193Z,6.90
2019-05-06T05:47:42.632Z,6.90
2019-05-06T05:50:16.545Z,7.00
2019-05-06T05:52:45.911Z,7.10
2019-05-06T05:55:15.247Z,7.20
2019-05-06T05:57:44.671Z,7.40
2019-05-06T06:00:15.264Z,7.50
2019-05-06T06:02:44.645Z,7.40
2019-05-06T06:05:14.211Z,7.40
2019-05-06T06:07:43.667Z,7.50
2019-05-06T06:10:26.633Z,7.60
2019-05-06T06:12:57.693Z,7.60
2019-05-06T06:15:32.919Z,7.70
2019-05-06T06:18:22.434Z,7.70
2019-05-06T06:20:59.355Z,7.80
2019-05-06T06:23:36.442Z,7.70
2019-05-06T06:26:05.910Z,7.60
2019-05-06T06:28:35.418Z,7.60
2019-05-06T06:31:23.014Z,7.60
2019-05-06T06:33:54.222Z,7.70
2019-05-06T06:36:27.904Z,7.70
2019-05-06T06:39:02.222Z,7.80
2019-05-06T06:41:33.235Z,7.90
2019-05-06T06:44:04.288Z,7.90
2019-05-06T06:46:33.707Z,7.80
2019-05-06T06:49:03.436Z,7.90
2019-05-06T06:51:33.143Z,7.90
2019-05-06T06:54:02.691Z,7.90
2019-05-06T06:56:43.688Z,7.90
2019-05-06T06:59:24.442Z,7.90
2019-05-06T07:02:05.379Z,7.90
2019-05-06T07:04:36.401Z,7.90
2019-05-06T07:07:06.041Z,7.90
2019-05-06T07:09:35.413Z,8.00
2019-05-06T07:12:04.861Z,7.90
2019-05-06T07:14:36.200Z,7.70
2019-05-06T07:17:05.399Z,7.60
2019-05-06T07:19:36.401Z,7.80
2019-05-06T07:22:06.950Z,7.60
2019-05-06T07:24:36.725Z,7.50
2019-05-06T07:27:12.482Z,7.30
2019-05-06T07:29:48.120Z,7.20
2019-05-06T07:32:12.712Z,7.10
2019-05-06T07:34:42.174Z,7.10
2019-05-06T07:37:12.497Z,7.10
2019-05-06T07:39:43.102Z,7.10
2019-05-06T07:42:14.318Z,7.20
2019-05-06T07:44:52.908Z,7.30
2019-05-06T07:47:26.233Z,7.40
2019-05-06T07:49:55.875Z,7.30
2019-05-06T07:52:25.284Z,7.40
2019-05-06T07:54:54.648Z,7.40
2019-05-06T07:57:24.086Z,7.30
2019-05-06T07:59:53.474Z,7.30
2019-05-06T08:02:23.133Z,7.30
2019-05-06T08:04:53.260Z,7.40
2019-05-06T08:07:22.735Z,7.40
2019-05-06T08:09:53.066Z,7.40
2019-05-06T08:12:22.669Z,7.50
2019-05-06T08:14:52.520Z,7.60
2019-05-06T08:17:23.678Z,7.50
2019-05-06T08:19:53.095Z,7.70
2019-05-06T08:22:42.268Z,7.70
2019-05-06T08:25:12.233Z,7.80
2019-05-06T08:27:42.741Z,7.80
2019-05-06T08:30:13.032Z,7.80
2019-05-06T08:32:42.624Z,7.90
2019-05-06T08:35:14.122Z,7.90
2019-05-06T08:37:44.710Z,8.00
2019-05-06T08:40:15.216Z,7.70
2019-05-06T08:42:44.847Z,7.70
2019-05-06T08:45:14.529Z,7.70
2019-05-06T08:47:46.711Z,7.70
2019-05-06T08:50:23.779Z,7.70
2019-05-06T08:52:57.726Z,7.80
2019-05-06T08:55:44.758Z,7.80
2019-05-06T08:58:15.183Z,8.00
2019-05-06T09:00:46.228Z,8.00
2019-05-06T09:03:15.635Z,8.20
2019-05-06T09:05:55.330Z,8.30
2019-05-06T09:08:25.136Z,8.40
2019-05-06T09:10:54.584Z,8.50
2019-05-06T09:13:23.963Z,8.80
2019-05-06T09:15:53.318Z,8.80
2019-05-06T09:18:24.101Z,9.00
2019-05-06T09:20:53.798Z,9.10
2019-05-06T09:23:27.431Z,9.10
2019-05-06T09:25:58.853Z,9.30
2019-05-06T09:28:45.179Z,9.30
2019-05-06T09:31:19.220Z,9.70
2019-05-06T09:33:53.146Z,9.50
2019-05-06T09:36:22.930Z,9.40
2019-05-06T09:38:53.081Z,9.70
2019-05-06T09:41:23.191Z,9.70
2019-05-06T09:43:52.917Z,9.60
2019-05-06T09:46:23.098Z,9.90
2019-05-06T09:49:12.847Z,10.30
2019-05-06T09:51:42.590Z,10.50
2019-05-06T09:54:19.819Z,10.20
2019-05-06T09:56:53.825Z,10.60
2019-05-06T09:59:23.480Z,10.90
2019-05-06T10:01:52.991Z,10.60
2019-05-06T10:04:22.322Z,10.50
2019-05-06T10:06:57.213Z,10.20
2019-05-06T10:09:24.882Z,10.10
2019-05-06T10:11:54.086Z,9.80
2019-05-06T10:14:23.604Z,9.90
2019-05-06T10:16:52.949Z,9.70
2019-05-06T10:19:22.799Z,9.70
2019-05-06T10:21:53.486Z,9.60
2019-05-06T10:24:23.082Z,9.60
2019-05-06T10:26:54.234Z,9.80
2019-05-06T10:29:28.266Z,9.90
2019-05-06T10:32:01.925Z,9.60
2019-05-06T10:34:32.792Z,9.80
2019-05-06T10:37:22.008Z,10.00
2019-05-06T10:39:57.217Z,10.30
2019-05-06T10:42:35.324Z,10.50
2019-05-06T10:45:12.367Z,10.60
2019-05-06T10:47:42.371Z,10.60
2019-05-06T10:50:12.558Z,10.70
2019-05-06T10:53:02.726Z,10.20
2019-05-06T10:55:33.390Z,9.90
2019-05-06T10:58:02.939Z,9.80
2019-05-06T11:00:33.216Z,9.70
2019-05-06T11:03:14.488Z,9.50
2019-05-06T11:05:43.117Z,9.40
2019-05-06T11:08:14.470Z,9.40
2019-05-06T11:10:45.316Z,9.00
2019-05-06T11:13:15.334Z,8.90
2019-05-06T11:15:44.986Z,9.10
2019-05-06T11:18:14.427Z,9.20
2019-05-06T11:20:44.256Z,9.20
2019-05-06T11:23:14.356Z,9.30
2019-05-06T11:25:44.083Z,9.40
2019-05-06T11:28:34.860Z,9.20
2019-05-06T11:31:04.070Z,9.10
2019-05-06T11:33:37.936Z,9.00
2019-05-06T11:36:09.050Z,8.90
2019-05-06T11:38:38.483Z,9.00
2019-05-06T11:41:07.882Z,9.00
2019-05-06T11:43:37.328Z,8.90
2019-05-06T11:46:06.683Z,8.90
2019-05-06T11:48:36.126Z,8.80
2019-05-06T11:51:07.240Z,8.80
2019-05-06T11:53:36.600Z,8.80
2019-05-06T11:56:06.138Z,8.90
2019-05-06T11:58:42.503Z,9.00
2019-05-06T12:01:13.477Z,9.00
2019-05-06T12:03:44.666Z,9.10
2019-05-06T12:06:14.096Z,9.50
2019-05-06T12:08:43.513Z,9.90
2019-05-06T12:11:12.927Z,9.80
2019-05-06T12:13:43.195Z,9.60
2019-05-06T12:16:14.164Z,9.60
2019-05-06T12:18:44.052Z,9.70
2019-05-06T12:21:19.095Z,9.60
2019-05-06T12:23:45.091Z,9.50
2019-05-06T12:26:14.599Z,9.50
2019-05-06T12:28:45.532Z,9.50
2019-05-06T12:31:14.892Z,9.70
2019-05-06T12:33:45.935Z,10.20
2019-05-06T12:36:17.159Z,10.60
2019-05-06T12:39:06.682Z,10.90
2019-05-06T12:41:37.238Z,10.90
2019-05-06T12:44:07.173Z,11.00
2019-05-06T12:46:44.069Z,11.50
2019-05-06T12:49:13.472Z,11.80
2019-05-06T12:51:45.770Z,12.00
2019-05-06T12:54:15.177Z,12.00
2019-05-06T12:56:44.636Z,12.20
2019-05-06T12:59:15.383Z,11.80
2019-05-06T13:01:45.813Z,11.90
2019-05-06T13:04:15.485Z,11.60
2019-05-06T13:06:48.840Z,11.40
2019-05-06T13:09:18.273Z,11.80
2019-05-06T13:11:48.690Z,11.90
2019-05-06T13:14:18.079Z,11.60
2019-05-06T13:16:47.596Z,11.60
2019-05-06T13:19:19.234Z,11.50
2019-05-06T13:21:48.685Z,11.60
2019-05-06T13:24:18.015Z,11.50
2019-05-06T13:26:52.812Z,11.70
2019-05-06T13:29:24.531Z,11.70
2019-05-06T13:31:53.785Z,12.10
2019-05-06T13:34:23.567Z,12.50
2019-05-06T13:36:53.594Z,12.80
2019-05-06T13:39:23.885Z,13.20
2019-05-06T13:41:53.769Z,13.40
2019-05-06T13:44:23.142Z,13.20
2019-05-06T13:46:53.511Z,13.40
2019-05-06T13:49:24.814Z,13.30
2019-05-06T13:52:06.827Z,13.00
2019-05-06T13:54:36.401Z,12.70
2019-05-06T13:57:05.761Z,12.40
2019-05-06T13:59:36.799Z,12.00
2019-05-06T14:02:08.375Z,12.20
2019-05-06T14:04:38.042Z,12.40
2019-05-06T14:07:07.625Z,12.80
2019-05-06T14:09:43.353Z,12.90
2019-05-06T14:12:11.449Z,13.40
2019-05-06T14:14:42.969Z,12.90
2019-05-06T14:17:12.705Z,13.30
2019-05-06T14:19:43.064Z,14.20
2019-05-06T14:22:12.776Z,13.80
2019-05-06T14:24:43.889Z,13.30
2019-05-06T14:27:14.996Z,13.10
2019-05-06T14:29:46.238Z,13.90
2019-05-06T14:32:15.606Z,14.30
2019-05-06T14:34:45.088Z,14.40
2019-05-06T14:37:14.529Z,13.80
2019-05-06T14:39:55.420Z,13.50
2019-05-06T14:42:19.272Z,13.10
2019-05-06T14:44:48.638Z,13.20
2019-05-06T14:47:23.290Z,13.00
2019-05-06T14:49:53.231Z,12.60
2019-05-06T14:52:22.906Z,13.00
2019-05-06T14:54:54.046Z,13.40
2019-05-06T14:57:24.574Z,13.80
2019-05-06T14:59:55.685Z,13.70
2019-05-06T15:02:27.167Z,13.40
2019-05-06T15:04:57.935Z,13.10
2019-05-06T15:07:27.380Z,13.00
2019-05-06T15:10:15.605Z,13.50
2019-05-06T15:12:27.866Z,13.80
2019-05-06T15:14:57.256Z,13.80
2019-05-06T15:17:26.716Z,13.50
2019-05-06T15:19:56.257Z,13.90
2019-05-06T15:22:25.622Z,13.30
2019-05-06T15:24:55.073Z,13.10
2019-05-06T15:27:26.069Z,13.30
2019-05-06T15:29:59.674Z,13.20
2019-05-06T15:32:30.705Z,12.90
2019-05-06T15:35:19.284Z,12.50
2019-05-06T15:37:53.147Z,12.30
2019-05-06T15:40:32.148Z,13.00
2019-05-06T15:42:53.414Z,13.70
2019-05-06T15:45:23.108Z,13.70
2019-05-06T15:47:52.565Z,13.40
2019-05-06T15:50:23.088Z,13.60
2019-05-06T15:53:01.994Z,13.30
2019-05-06T15:55:32.690Z,13.80
2019-05-06T15:58:03.498Z,12.90
2019-05-06T16:00:35.108Z,12.50
2019-05-06T16:03:04.634Z,12.40
2019-05-06T16:05:34.483Z,12.30
2019-05-06T16:08:05.477Z,12.10
2019-05-06T16:10:51.256Z,11.90
2019-05-06T16:13:07.505Z,11.70
2019-05-06T16:15:36.958Z,11.50
2019-05-06T16:18:06.342Z,11.60
2019-05-06T16:20:35.792Z,11.60
2019-05-06T16:23:13.179Z,11.70
2019-05-06T16:25:44.852Z,11.70
2019-05-06T16:28:13.816Z,12.20
2019-05-06T16:30:43.251Z,12.90
2019-05-06T16:33:14.977Z,13.30
2019-05-06T16:35:43.803Z,13.20
2019-05-06T16:38:13.321Z,13.20
2019-05-06T16:40:45.728Z,13.40
2019-05-06T16:43:16.743Z,13.30
2019-05-06T16:45:46.163Z,13.50
2019-05-06T16:48:15.609Z,13.70
2019-05-06T16:50:46.052Z,12.90
2019-05-06T16:53:15.536Z,12.50
2019-05-06T16:55:55.353Z,13.20
2019-05-06T16:58:42.915Z,12.50
2019-05-06T17:01:14.942Z,12.40
2019-05-06T17:03:47.030Z,12.50
2019-05-06T17:06:18.076Z,12.10
2019-05-06T17:08:47.510Z,12.00
2019-05-06T17:11:26.870Z,12.10
2019-05-06T17:13:48.118Z,11.90
2019-05-06T17:16:17.879Z,11.80
2019-05-06T17:18:47.364Z,11.70
2019-05-06T17:21:16.809Z,11.60
2019-05-06T17:23:46.308Z,11.40
2019-05-06T17:26:15.791Z,11.40
2019-05-06T17:28:54.292Z,11.40
2019-05-06T17:31:28.003Z,11.40
2019-05-06T17:34:15.697Z,11.10
2019-05-06T17:36:45.443Z,10.70
2019-05-06T17:39:14.899Z,10.50
2019-05-06T17:41:48.536Z,10.70
2019-05-06T17:44:15.328Z,10.60
2019-05-06T17:46:46.421Z,10.60
2019-05-06T17:49:22.952Z,10.60
2019-05-06T17:52:02.965Z,10.70
2019-05-06T17:54:32.659Z,10.70
2019-05-06T17:57:05.190Z,10.50
2019-05-06T17:59:37.126Z,10.60
2019-05-06T18:02:19.309Z,10.40
2019-05-06T18:04:48.784Z,10.40
2019-05-06T18:07:18.148Z,10.30
2019-05-06T18:09:47.636Z,10.30
2019-05-06T18:12:18.720Z,10.40
2019-05-06T18:14:48.138Z,10.30
2019-05-06T18:17:17.577Z,10.30
2019-05-06T18:19:46.993Z,10.20
2019-05-06T18:22:16.355Z,10.10
2019-05-06T18:24:48.639Z,10.10
2019-05-06T18:27:18.101Z,10.20
2019-05-06T18:29:47.464Z,10.10
2019-05-06T18:32:17.275Z,10.00
2019-05-06T18:34:48.330Z,9.90
2019-05-06T18:37:17.676Z,9.90
2019-05-06T18:39:47.105Z,9.90
2019-05-06T18:42:20.155Z,9.90
2019-05-06T18:44:47.511Z,9.90
2019-05-06T18:47:16.936Z,10.00
2019-05-06T18:49:47.455Z,10.00
2019-05-06T18:52:16.963Z,9.90
2019-05-06T18:54:46.527Z,9.90
2019-05-06T18:57:15.891Z,10.00
2019-05-06T18:59:45.460Z,10.00
2019-05-06T19:02:15.139Z,9.90
2019-05-06T19:04:49.045Z,9.90
2019-05-06T19:07:18.427Z,9.90
2019-05-06T19:09:52.680Z,9.90
2019-05-06T19:12:30.506Z,9.80
2019-05-06T19:14:53.358Z,9.80
2019-05-06T19:17:22.892Z,9.80
2019-05-06T19:19:52.311Z,9.90
2019-05-06T19:22:22.933Z,9.90
2019-05-06T19:24:52.551Z,9.80
2019-05-06T19:27:24.646Z,9.80
2019-05-06T19:29:54.717Z,9.70
2019-05-06T19:32:25.249Z,9.80
2019-05-06T19:34:54.614Z,9.80
2019-05-06T19:37:24.295Z,9.80
2019-05-06T19:39:53.775Z,9.80
2019-05-06T19:42:23.168Z,9.70
2019-05-06T19:44:53.051Z,9.60
2019-05-06T19:47:22.572Z,9.60
2019-05-06T19:49:53.259Z,9.70
2019-05-06T19:52:24.973Z,9.70
2019-05-06T19:54:55.536Z,9.70
2019-05-06T19:57:25.079Z,9.60
2019-05-06T19:59:54.569Z,9.60
2019-05-06T20:02:25.810Z,9.70
2019-05-06T20:04:57.076Z,9.70
2019-05-06T20:07:30.985Z,9.60
2019-05-06T20:10:18.601Z,9.60
2019-05-06T20:13:04.856Z,9.60
2019-05-06T20:18:15.613Z,9.60
2019-05-06T20:20:46.682Z,9.50
2019-05-06T20:23:16.108Z,9.50
2019-05-06T20:25:45.480Z,9.40
2019-05-06T20:28:14.856Z,9.40
2019-05-06T20:30:44.235Z,9.30
2019-05-06T20:33:13.784Z,9.30
2019-05-06T20:35:43.461Z,9.40
2019-05-06T20:38:12.914Z,9.40
2019-05-06T20:40:43.128Z,9.30
2019-05-06T20:43:20.218Z,9.30
2019-05-06T20:45:44.082Z,9.30
2019-05-06T20:48:13.450Z,9.20
2019-05-06T20:50:43.071Z,9.10
2019-05-06T20:53:12.861Z,9.10
2019-05-06T20:55:43.444Z,9.00
2019-05-06T20:58:13.051Z,8.90
2019-05-06T21:00:43.139Z,8.90
2019-05-06T21:03:12.746Z,8.80
2019-05-06T21:05:43.470Z,8.90
2019-05-06T21:08:14.336Z,8.90
2019-05-06T21:10:44.105Z,8.90
2019-05-06T21:13:21.993Z,8.90
2019-05-06T21:15:44.653Z,8.90
2019-05-06T21:18:14.194Z,8.90
2019-05-06T21:20:43.771Z,8.90
2019-05-06T21:23:13.199Z,8.80
2019-05-06T21:25:43.726Z,8.80
2019-05-06T21:28:13.208Z,8.80
2019-05-06T21:30:42.984Z,8.80
2019-05-06T21:33:12.664Z,8.80
2019-05-06T21:35:42.513Z,8.70
2019-05-06T21:38:13.745Z,8.70
2019-05-06T21:40:43.519Z,8.70
2019-05-06T21:43:13.221Z,8.70
2019-05-06T21:45:42.954Z,8.60
2019-05-06T21:48:13.688Z,8.50
2019-05-06T21:50:43.354Z,8.50
2019-05-06T21:53:14.712Z,8.50
2019-05-06T21:55:43.876Z,8.50
2019-05-06T21:58:13.289Z,8.40
2019-05-06T22:00:44.558Z,8.30
2019-05-06T22:03:14.201Z,8.30
2019-05-06T22:05:43.576Z,8.30
2019-05-06T22:08:13.077Z,8.20
2019-05-06T22:10:42.545Z,8.10
2019-05-06T22:13:12.592Z,8.00
2019-05-06T22:15:44.491Z,7.90
2019-05-06T22:18:13.858Z,7.80
2019-05-06T22:21:02.951Z,7.90
2019-05-06T22:23:50.248Z,7.90
2019-05-06T22:26:19.744Z,7.90
2019-05-06T22:28:49.117Z,7.90
2019-05-06T22:31:18.660Z,7.90
2019-05-06T22:33:48.287Z,7.80
2019-05-06T22:36:17.643Z,7.80
2019-05-06T22:38:47.007Z,7.80
2019-05-06T22:41:16.355Z,7.70
2019-05-06T22:43:45.709Z,7.60
2019-05-06T22:46:18.128Z,7.70
2019-05-06T22:48:46.147Z,7.60
2019-05-06T22:51:15.527Z,7.50
2019-05-06T22:54:05.736Z,7.60
2019-05-06T22:56:35.098Z,7.60
2019-05-06T22:59:04.443Z,7.70
2019-05-06T23:01:35.482Z,7.70
2019-05-06T23:04:06.598Z,7.70
2019-05-06T23:06:36.042Z,7.70
2019-05-06T23:09:09.019Z,7.70
2019-05-06T23:11:38.919Z,7.70
2019-05-06T23:14:09.233Z,7.70
2019-05-06T23:16:38.646Z,7.70
2019-05-06T23:19:08.048Z,7.60
2019-05-06T23:21:37.390Z,7.60
2019-05-06T23:24:08.284Z,7.50
2019-05-06T23:26:38.754Z,7.60
2019-05-06T23:29:08.202Z,7.50
2019-05-06T23:31:37.819Z,7.60
2019-05-06T23:34:07.188Z,7.60
2019-05-06T23:36:58.946Z,7.50
2019-05-06T23:40:06.094Z,7.50
2019-05-06T23:43:12.642Z,7.40
2019-05-06T23:46:18.487Z,7.40
2019-05-06T23:49:24.058Z,7.30
2019-05-06T23:52:31.889Z,7.30
2019-05-06T23:55:37.200Z,7.20
2019-05-06T23:58:05.503Z,7.20
